createdAt,value
2022-11-26T00:02:46.161Z,5.60
2022-11-26T00:05:51.523Z,5.50
2022-11-26T00:08:56.274Z,5.60
2022-11-26T00:12:01.120Z,5.50
2022-11-26T00:15:16.127Z,5.60
2022-11-26T00:18:20.836Z,5.50
2022-11-26T00:21:26.188Z,5.60
2022-11-26T00:24:30.986Z,5.50
2022-11-26T00:27:35.272Z,5.50
2022-11-26T00:30:39.676Z,5.50
2022-11-26T00:33:43.777Z,5.50
2022-11-26T00:36:48.455Z,5.50
2022-11-26T00:39:52.586Z,5.50
2022-11-26T00:43:01.446Z,5.50
2022-11-26T00:46:09.378Z,5.50
2022-11-26T00:49:13.934Z,5.50
2022-11-26T00:52:24.992Z,5.50
2022-11-26T00:55:43.808Z,5.40
2022-11-26T00:58:48.444Z,5.50
2022-11-26T01:01:52.971Z,5.40
2022-11-26T01:04:57.348Z,5.50
2022-11-26T01:08:02.903Z,5.40
2022-11-26T01:11:07.585Z,5.40
2022-11-26T01:14:17.074Z,5.40
2022-11-26T01:17:21.513Z,5.40
2022-11-26T01:20:28.562Z,5.40
2022-11-26T01:23:32.967Z,5.40
2022-11-26T01:26:40.079Z,5.40
2022-11-26T01:29:43.993Z,5.40
2022-11-26T01:32:48.630Z,5.30
2022-11-26T01:35:52.586Z,5.30
2022-11-26T01:39:01.979Z,5.30
2022-11-26T01:42:06.382Z,5.30
2022-11-26T01:45:14.983Z,5.30
2022-11-26T01:48:27.135Z,5.40
2022-11-26T01:51:31.187Z,5.30
2022-11-26T01:54:36.726Z,5.30
2022-11-26T01:57:41.045Z,5.30
2022-11-26T02:00:45.235Z,5.30
2022-11-26T02:03:55.756Z,5.30
2022-11-26T02:07:00.140Z,5.30
2022-11-26T02:10:05.058Z,5.20
2022-11-26T02:13:09.357Z,5.30
2022-11-26T02:16:32.257Z,5.30
2022-11-26T02:19:39.804Z,5.30
2022-11-26T02:22:50.094Z,5.30
2022-11-26T02:26:01.012Z,5.30
2022-11-26T02:29:15.244Z,5.30
2022-11-26T02:32:27.478Z,5.30
2022-11-26T02:35:40.572Z,5.30
2022-11-26T02:38:44.610Z,5.30
2022-11-26T02:41:53.922Z,5.30
2022-11-26T02:45:04.448Z,5.30
2022-11-26T02:48:11.630Z,5.30
2022-11-26T02:51:22.232Z,5.30
2022-11-26T02:54:27.784Z,5.30
2022-11-26T02:57:34.296Z,5.30
2022-11-26T03:00:40.973Z,5.30
2022-11-26T03:03:47.975Z,5.30
2022-11-26T03:06:53.448Z,5.30
2022-11-26T03:09:58.397Z,5.30
2022-11-26T03:13:03.199Z,5.30
2022-11-26T03:16:08.088Z,5.30
2022-11-26T03:19:12.771Z,5.30
2022-11-26T03:22:16.837Z,5.30
2022-11-26T03:25:21.064Z,5.30
2022-11-26T03:28:25.402Z,5.30
2022-11-26T03:31:30.034Z,5.30
2022-11-26T03:34:34.584Z,5.30
2022-11-26T03:37:39.240Z,5.30
2022-11-26T03:40:43.669Z,5.30
2022-11-26T03:43:49.077Z,5.30
2022-11-26T03:46:53.144Z,5.30
2022-11-26T03:49:57.118Z,5.30
2022-11-26T03:53:01.368Z,5.30
2022-11-26T03:56:05.427Z,5.40
2022-11-26T03:59:09.604Z,5.30
2022-11-26T04:02:13.800Z,5.30
2022-11-26T04:05:18.696Z,5.30
2022-11-26T04:08:22.768Z,5.40
2022-11-26T04:11:26.540Z,5.40
2022-11-26T04:14:31.021Z,5.40
2022-11-26T04:17:35.352Z,5.30
2022-11-26T04:20:40.048Z,5.40
2022-11-26T04:23:44.577Z,5.40
2022-11-26T04:26:49.275Z,5.40
2022-11-26T04:29:53.537Z,5.40
2022-11-26T04:32:58.521Z,5.40
2022-11-26T04:36:03.221Z,5.30
2022-11-26T04:39:07.815Z,5.40
2022-11-26T04:42:12.135Z,5.30
2022-11-26T04:45:16.697Z,5.40
2022-11-26T04:48:21.090Z,5.40
2022-11-26T04:51:25.681Z,5.40
2022-11-26T04:54:30.068Z,5.30
2022-11-26T04:57:34.764Z,5.40
2022-11-26T05:00:40.200Z,5.40
2022-11-26T05:03:44.909Z,5.40
2022-11-26T05:06:49.697Z,5.40
2022-11-26T05:09:54.634Z,5.40
2022-11-26T05:12:59.427Z,5.40
2022-11-26T05:16:03.573Z,5.40
2022-11-26T05:19:07.737Z,5.40
2022-11-26T05:22:12.692Z,5.40
2022-11-26T05:25:17.174Z,5.40
2022-11-26T05:28:21.515Z,5.40
2022-11-26T05:31:25.906Z,5.40
2022-11-26T05:34:29.982Z,5.40
2022-11-26T05:37:34.512Z,5.30
2022-11-26T05:40:38.724Z,5.30
2022-11-26T05:43:42.924Z,5.30
2022-11-26T05:46:47.232Z,5.40
2022-11-26T05:49:51.128Z,5.40
2022-11-26T05:52:55.205Z,5.30
2022-11-26T05:55:59.316Z,5.30
2022-11-26T05:59:03.462Z,5.30
2022-11-26T06:02:07.387Z,5.30
2022-11-26T06:05:12.100Z,5.30
2022-11-26T06:08:16.261Z,5.30
2022-11-26T06:11:20.891Z,5.30
2022-11-26T06:14:24.978Z,5.20
2022-11-26T06:17:28.968Z,5.20
2022-11-26T06:20:33.135Z,5.10
2022-11-26T06:23:37.074Z,5.10
2022-11-26T06:26:41.311Z,5.10
2022-11-26T06:29:45.804Z,5.10
2022-11-26T06:32:50.118Z,5.10
2022-11-26T06:35:58.437Z,5.10
2022-11-26T06:39:02.955Z,5.10
2022-11-26T06:42:07.778Z,5.10
2022-11-26T06:45:12.349Z,5.10
2022-11-26T06:48:17.127Z,5.10
2022-11-26T06:51:21.915Z,5.10
2022-11-26T06:54:26.627Z,5.10
2022-11-26T06:57:31.225Z,5.10
2022-11-26T07:00:35.789Z,5.10
2022-11-26T07:03:40.401Z,5.10
2022-11-26T07:06:45.300Z,5.10
2022-11-26T07:09:49.562Z,5.10
2022-11-26T07:12:54.117Z,5.10
2022-11-26T07:16:01.517Z,5.20
2022-11-26T07:19:06.053Z,5.20
2022-11-26T07:22:10.283Z,5.20
2022-11-26T07:25:14.923Z,5.30
2022-11-26T07:28:19.138Z,5.20
2022-11-26T07:31:24.023Z,5.30
2022-11-26T07:34:28.362Z,5.30
2022-11-26T07:37:33.302Z,5.30
2022-11-26T07:40:37.997Z,5.30
2022-11-26T07:43:43.048Z,5.30
2022-11-26T07:46:47.247Z,5.30
2022-11-26T07:49:51.615Z,5.30
2022-11-26T07:52:56.503Z,5.40
2022-11-26T07:56:04.097Z,5.40
2022-11-26T07:59:09.634Z,5.40
2022-11-26T08:02:15.008Z,5.30
2022-11-26T08:05:19.402Z,5.40
2022-11-26T08:08:23.903Z,5.40
2022-11-26T08:11:29.696Z,5.40
2022-11-26T08:14:34.137Z,5.40
2022-11-26T08:17:38.560Z,5.50
2022-11-26T08:20:42.561Z,5.50
2022-11-26T08:23:46.684Z,5.60
2022-11-26T08:26:50.632Z,5.50
2022-11-26T08:29:54.660Z,5.60
2022-11-26T08:32:58.785Z,5.70
2022-11-26T08:36:07.873Z,5.70
2022-11-26T08:39:17.424Z,5.70
2022-11-26T08:42:22.248Z,5.70
2022-11-26T08:45:26.698Z,5.70
2022-11-26T08:48:31.981Z,5.70
2022-11-26T08:51:36.073Z,5.70
2022-11-26T08:54:44.859Z,5.80
2022-11-26T08:57:49.939Z,5.80
2022-11-26T09:00:54.152Z,5.80
2022-11-26T09:03:59.183Z,5.90
2022-11-26T09:07:03.701Z,6.00
2022-11-26T09:10:08.181Z,6.00
2022-11-26T09:13:13.488Z,6.10
2022-11-26T09:16:19.782Z,6.10
2022-11-26T09:19:24.794Z,6.10
2022-11-26T09:22:29.498Z,6.30
2022-11-26T09:25:33.985Z,6.30
2022-11-26T09:28:39.521Z,6.40
2022-11-26T09:32:07.599Z,6.50
2022-11-26T09:35:09.178Z,6.50
2022-11-26T09:38:13.077Z,6.60
2022-11-26T09:41:23.808Z,6.60
2022-11-26T09:44:30.860Z,6.70
2022-11-26T09:47:42.802Z,6.70
2022-11-26T09:50:47.812Z,6.70
2022-11-26T09:53:52.033Z,6.70
2022-11-26T09:57:09.144Z,6.70
2022-11-26T10:00:27.425Z,6.80
2022-11-26T10:03:33.318Z,6.80
2022-11-26T10:06:51.561Z,6.90
2022-11-26T10:10:03.017Z,7.00
2022-11-26T10:13:26.431Z,7.00
2022-11-26T10:16:52.285Z,7.00
2022-11-26T10:20:02.931Z,7.00
2022-11-26T10:23:14.424Z,7.10
2022-11-26T10:26:29.803Z,7.10
2022-11-26T10:29:37.096Z,7.10
2022-11-26T10:32:42.506Z,7.20
2022-11-26T10:35:47.123Z,7.20
2022-11-26T10:38:52.306Z,7.20
2022-11-26T10:41:56.916Z,7.30
2022-11-26T10:45:15.680Z,7.30
2022-11-26T10:48:25.373Z,7.40
2022-11-26T10:51:33.176Z,7.50
2022-11-26T10:54:38.243Z,7.50
2022-11-26T10:57:43.836Z,7.60
2022-11-26T11:00:54.530Z,7.80
2022-11-26T11:04:07.801Z,7.70
2022-11-26T11:07:32.169Z,7.70
2022-11-26T11:10:36.864Z,7.70
2022-11-26T11:13:41.847Z,7.70
2022-11-26T11:16:46.583Z,7.80
2022-11-26T11:19:50.800Z,7.80
2022-11-26T11:23:04.556Z,7.90
2022-11-26T11:26:16.682Z,7.90
2022-11-26T11:29:34.431Z,7.80
2022-11-26T11:32:39.907Z,7.80
2022-11-26T11:35:44.514Z,7.80
2022-11-26T11:39:01.932Z,7.90
2022-11-26T11:42:07.676Z,7.90
2022-11-26T11:45:25.718Z,8.00
2022-11-26T11:48:43.938Z,8.00
2022-11-26T11:51:51.119Z,8.00
2022-11-26T11:55:18.555Z,8.10
2022-11-26T11:58:28.985Z,8.20
2022-11-26T12:01:45.335Z,8.30
2022-11-26T12:04:49.844Z,8.30
2022-11-26T12:08:14.883Z,8.40
2022-11-26T12:11:36.899Z,8.40
2022-11-26T12:14:42.838Z,8.70
2022-11-26T12:17:50.241Z,9.90
2022-11-26T12:20:57.088Z,10.90
2022-11-26T12:24:11.447Z,10.90
2022-11-26T12:27:22.768Z,10.20
2022-11-26T12:30:30.530Z,9.70
2022-11-26T12:33:41.320Z,10.10
2022-11-26T12:36:51.049Z,11.30
2022-11-26T12:40:14.030Z,12.10
2022-11-26T12:43:25.851Z,12.50
2022-11-26T12:46:41.682Z,12.60
2022-11-26T12:50:01.929Z,12.10
2022-11-26T12:53:06.020Z,11.90
2022-11-26T12:56:10.214Z,12.00
2022-11-26T12:59:33.025Z,11.40
2022-11-26T13:02:40.311Z,11.00
2022-11-26T13:06:08.740Z,10.40
2022-11-26T13:09:16.037Z,9.90
2022-11-26T13:12:29.425Z,9.70
2022-11-26T13:15:39.416Z,9.70
2022-11-26T13:18:46.111Z,9.40
2022-11-26T13:22:09.639Z,9.30
2022-11-26T13:25:32.651Z,9.20
2022-11-26T13:28:58.844Z,9.10
2022-11-26T13:32:19.773Z,9.00
2022-11-26T13:35:26.915Z,8.90
2022-11-26T13:38:35.715Z,9.10
2022-11-26T13:41:52.231Z,9.20
2022-11-26T13:45:15.342Z,9.40
2022-11-26T13:48:32.946Z,9.70
2022-11-26T13:51:41.074Z,9.40
2022-11-26T13:54:47.633Z,8.90
2022-11-26T13:57:54.100Z,8.80
2022-11-26T14:01:17.961Z,8.60
2022-11-26T14:04:22.265Z,8.50
2022-11-26T14:07:26.404Z,8.50
2022-11-26T14:10:33.927Z,8.50
2022-11-26T14:13:38.831Z,8.40
2022-11-26T14:17:06.691Z,8.30
2022-11-26T14:20:11.457Z,8.20
2022-11-26T14:23:38.889Z,8.20
2022-11-26T14:26:43.402Z,8.10
2022-11-26T14:29:52.732Z,8.00
2022-11-26T14:33:06.342Z,7.90
2022-11-26T14:36:20.114Z,7.90
2022-11-26T14:39:25.046Z,7.80
2022-11-26T14:42:29.929Z,7.70
2022-11-26T14:45:34.394Z,7.70
2022-11-26T14:48:42.214Z,7.60
2022-11-26T14:51:48.197Z,7.60
2022-11-26T14:54:53.496Z,7.50
2022-11-26T14:58:01.225Z,7.40
2022-11-26T15:01:08.073Z,7.30
2022-11-26T15:04:26.780Z,7.20
2022-11-26T15:07:31.880Z,7.20
2022-11-26T15:10:46.586Z,7.10
2022-11-26T15:13:50.896Z,7.00
2022-11-26T15:16:56.387Z,6.90
2022-11-26T15:20:02.675Z,6.90
2022-11-26T15:23:14.624Z,6.80
2022-11-26T15:26:25.720Z,6.80
2022-11-26T15:29:31.720Z,6.80
2022-11-26T15:32:36.058Z,6.70
2022-11-26T15:35:40.584Z,6.70
2022-11-26T15:39:06.372Z,6.70
2022-11-26T15:42:40.332Z,6.70
2022-11-26T15:45:44.944Z,6.70
2022-11-26T15:48:56.424Z,6.70
2022-11-26T15:52:22.188Z,6.70
2022-11-26T15:55:29.752Z,6.70
2022-11-26T15:58:36.035Z,6.70
2022-11-26T16:01:43.444Z,6.70
2022-11-26T16:04:52.225Z,6.70
2022-11-26T16:08:01.600Z,6.70
2022-11-26T16:11:19.365Z,6.70
2022-11-26T16:14:37.016Z,6.70
2022-11-26T16:17:41.625Z,6.70
2022-11-26T16:20:46.249Z,6.60
2022-11-26T16:23:55.803Z,6.70
2022-11-26T16:27:00.878Z,6.70
2022-11-26T16:30:15.359Z,6.70
2022-11-26T16:33:19.758Z,6.70
2022-11-26T16:36:25.033Z,6.70
2022-11-26T16:39:30.907Z,6.70
2022-11-26T16:42:36.162Z,6.70
2022-11-26T16:45:40.212Z,6.60
2022-11-26T16:48:45.527Z,6.60
2022-11-26T16:51:49.801Z,6.60
2022-11-26T16:54:54.453Z,6.60
2022-11-26T16:57:59.791Z,6.60
2022-11-26T17:01:04.482Z,6.60
2022-11-26T17:04:09.129Z,6.60
2022-11-26T17:07:14.708Z,6.60
2022-11-26T17:10:20.618Z,6.70
2022-11-26T17:13:25.359Z,6.70
2022-11-26T17:16:29.916Z,6.70
2022-11-26T17:19:34.408Z,6.60
2022-11-26T17:22:38.623Z,6.50
2022-11-26T17:25:44.230Z,6.60
2022-11-26T17:28:48.548Z,6.60
2022-11-26T17:31:52.759Z,6.60
2022-11-26T17:34:56.961Z,6.60
2022-11-26T17:38:01.224Z,6.60
2022-11-26T17:41:06.445Z,6.60
2022-11-26T17:44:10.439Z,6.60
2022-11-26T17:47:17.684Z,6.60
2022-11-26T17:50:24.274Z,6.60
2022-11-26T17:53:28.743Z,6.60
2022-11-26T17:56:33.525Z,6.60
2022-11-26T17:59:38.349Z,6.60
2022-11-26T18:02:43.790Z,6.60
2022-11-26T18:05:47.629Z,6.50
2022-11-26T18:08:52.284Z,6.60
2022-11-26T18:11:56.464Z,6.50
2022-11-26T18:15:02.090Z,6.60
2022-11-26T18:18:07.438Z,6.60
2022-11-26T18:21:12.289Z,6.60
2022-11-26T18:24:17.164Z,6.60
2022-11-26T18:27:25.479Z,6.60
2022-11-26T18:30:30.556Z,6.60
2022-11-26T18:33:35.362Z,6.60
2022-11-26T18:36:40.155Z,6.70
2022-11-26T18:39:44.509Z,6.80
2022-11-26T18:42:51.718Z,6.70
2022-11-26T18:45:56.102Z,6.70
2022-11-26T18:49:00.616Z,6.70
2022-11-26T18:52:05.200Z,6.60
2022-11-26T18:55:09.600Z,6.60
2022-11-26T18:58:17.436Z,6.60
2022-11-26T19:01:23.454Z,6.60
2022-11-26T19:04:28.038Z,6.70
2022-11-26T19:07:33.137Z,6.70
2022-11-26T19:10:38.208Z,6.70
2022-11-26T19:13:42.828Z,6.70
2022-11-26T19:16:48.801Z,6.70
2022-11-26T19:19:53.486Z,6.70
2022-11-26T19:22:58.358Z,6.70
2022-11-26T19:26:05.579Z,6.80
2022-11-26T19:29:11.228Z,6.80
2022-11-26T19:32:15.580Z,6.80
2022-11-26T19:35:19.814Z,6.80
2022-11-26T19:38:24.387Z,6.80
2022-11-26T19:41:28.891Z,6.80
2022-11-26T19:44:34.513Z,6.80
2022-11-26T19:47:38.851Z,6.80
2022-11-26T19:50:43.475Z,6.80
2022-11-26T19:53:48.812Z,6.90
2022-11-26T19:56:53.180Z,6.90
2022-11-26T19:59:57.183Z,6.90
2022-11-26T20:03:01.518Z,6.90
2022-11-26T20:06:07.257Z,6.90
2022-11-26T20:09:12.220Z,6.90
2022-11-26T20:12:16.353Z,6.90
2022-11-26T20:15:20.468Z,7.00
2022-11-26T20:18:24.784Z,6.90
2022-11-26T20:21:32.317Z,6.90
2022-11-26T20:24:36.392Z,7.00
2022-11-26T20:27:44.016Z,7.00
2022-11-26T20:30:48.290Z,7.00
2022-11-26T20:33:53.354Z,7.00
2022-11-26T20:36:58.018Z,7.00
2022-11-26T20:40:02.851Z,7.00
2022-11-26T20:43:07.574Z,7.00
2022-11-26T20:46:12.949Z,7.00
2022-11-26T20:49:17.149Z,7.00
2022-11-26T20:52:24.010Z,7.10
2022-11-26T20:55:28.555Z,7.00
2022-11-26T20:58:33.105Z,7.00
2022-11-26T21:01:38.047Z,7.00
2022-11-26T21:04:42.170Z,7.00
2022-11-26T21:07:46.852Z,7.00
2022-11-26T21:10:51.143Z,7.00
2022-11-26T21:13:56.891Z,7.00
2022-11-26T21:17:01.732Z,7.00
2022-11-26T21:20:06.601Z,7.00
2022-11-26T21:23:12.185Z,7.00
2022-11-26T21:26:17.762Z,7.00
2022-11-26T21:29:21.789Z,7.00
2022-11-26T21:32:26.205Z,7.10
2022-11-26T21:35:30.073Z,7.00
2022-11-26T21:38:34.851Z,7.10
2022-11-26T21:41:38.723Z,7.10
2022-11-26T21:44:43.308Z,7.10
2022-11-26T21:47:49.170Z,7.10
2022-11-26T21:50:53.729Z,7.10
2022-11-26T21:53:58.447Z,7.10
2022-11-26T21:57:02.881Z,7.10
2022-11-26T22:00:07.748Z,7.10
2022-11-26T22:03:12.715Z,7.10
2022-11-26T22:06:18.342Z,7.10
2022-11-26T22:09:22.919Z,7.10
2022-11-26T22:12:27.548Z,7.10
2022-11-26T22:15:31.921Z,7.10
2022-11-26T22:18:40.077Z,7.10
2022-11-26T22:21:44.239Z,7.20
2022-11-26T22:24:49.258Z,7.20
2022-11-26T22:27:53.274Z,7.20
2022-11-26T22:30:57.524Z,7.20
2022-11-26T22:34:04.270Z,7.20
2022-11-26T22:37:08.571Z,7.10
2022-11-26T22:40:12.919Z,7.10
2022-11-26T22:43:16.973Z,7.10
2022-11-26T22:46:22.678Z,7.20
2022-11-26T22:49:27.362Z,7.20
2022-11-26T22:52:31.500Z,7.10
2022-11-26T22:55:35.576Z,7.20
2022-11-26T22:58:39.977Z,7.20
2022-11-26T23:01:44.140Z,7.20
2022-11-26T23:04:48.873Z,7.20
2022-11-26T23:07:53.089Z,7.20
2022-11-26T23:10:57.693Z,7.20
2022-11-26T23:14:04.850Z,7.20
2022-11-26T23:17:09.393Z,7.30
2022-11-26T23:20:13.941Z,7.30
2022-11-26T23:23:18.175Z,7.40
2022-11-26T23:26:27.574Z,7.40
2022-11-26T23:29:32.115Z,7.40
2022-11-26T23:32:36.220Z,7.40
2022-11-26T23:35:42.604Z,7.40
2022-11-26T23:38:47.421Z,7.30
2022-11-26T23:41:52.135Z,7.30
2022-11-26T23:44:56.316Z,7.30
2022-11-26T23:48:00.961Z,7.30
2022-11-26T23:51:09.046Z,7.30
2022-11-26T23:54:13.803Z,7.30
2022-11-26T23:57:18.315Z,7.30
